createdAt,value
2023-01-30T00:01:27.428Z,8.40
2023-01-30T00:03:58.286Z,9.10
2023-01-30T00:06:27.424Z,10.67
2023-01-30T00:08:56.929Z,9.53
2023-01-30T00:11:27.157Z,9.53
2023-01-30T00:13:55.795Z,8.93
2023-01-30T00:16:24.908Z,9.17
2023-01-30T00:18:54.028Z,10.00
2023-01-30T00:21:24.394Z,9.57
2023-01-30T00:23:53.838Z,9.03
2023-01-30T00:26:23.044Z,8.80
2023-01-30T00:28:51.636Z,9.60
2023-01-30T00:31:20.455Z,10.03
2023-01-30T00:33:49.319Z,9.63
2023-01-30T00:36:17.806Z,9.50
2023-01-30T00:38:48.355Z,9.57
2023-01-30T00:41:17.617Z,10.43
2023-01-30T00:44:16.697Z,9.43
2023-01-30T00:47:02.620Z,9.67
2023-01-30T00:49:31.955Z,9.73
2023-01-30T00:52:00.665Z,11.67
2023-01-30T00:54:30.943Z,11.90
2023-01-30T00:56:59.504Z,12.53
2023-01-30T00:59:28.363Z,11.80
2023-01-30T01:01:57.220Z,12.93
2023-01-30T01:04:25.965Z,12.33
2023-01-30T01:06:54.925Z,13.00
2023-01-30T01:09:23.531Z,13.03
2023-01-30T01:11:53.926Z,14.27
2023-01-30T01:14:22.776Z,14.70
2023-01-30T01:16:51.685Z,13.00
2023-01-30T01:19:20.741Z,13.30
2023-01-30T01:21:50.529Z,13.93
2023-01-30T01:24:19.882Z,15.43
2023-01-30T01:26:48.778Z,13.33
2023-01-30T01:29:19.532Z,13.03
2023-01-30T01:31:48.358Z,14.33
2023-01-30T01:34:16.953Z,13.10
2023-01-30T01:36:54.454Z,14.67
2023-01-30T01:39:24.048Z,14.53
2023-01-30T01:41:51.877Z,14.13
2023-01-30T01:44:23.179Z,13.63
2023-01-30T01:46:55.678Z,12.50
2023-01-30T01:49:27.079Z,12.87
2023-01-30T01:51:59.362Z,12.47
2023-01-30T01:54:34.967Z,12.23
2023-01-30T01:57:07.212Z,12.40
2023-01-30T01:59:42.100Z,11.50
2023-01-30T02:02:14.743Z,11.87
2023-01-30T02:05:07.039Z,11.20
2023-01-30T02:07:39.279Z,11.67
2023-01-30T02:10:11.413Z,11.53
2023-01-30T02:12:41.242Z,12.30
2023-01-30T02:15:13.621Z,11.63
2023-01-30T02:17:42.108Z,12.20
2023-01-30T02:20:23.084Z,12.30
2023-01-30T02:23:13.903Z,11.90
2023-01-30T02:26:23.187Z,12.13
2023-01-30T02:29:20.064Z,13.43
2023-01-30T02:32:01.778Z,13.00
2023-01-30T02:34:42.740Z,13.63
2023-01-30T02:37:22.839Z,13.47
2023-01-30T02:40:09.407Z,12.53
2023-01-30T02:42:46.240Z,12.47
2023-01-30T02:45:23.983Z,13.17
2023-01-30T02:47:59.720Z,13.93
2023-01-30T02:50:31.877Z,14.60
2023-01-30T02:53:00.383Z,12.30
2023-01-30T02:55:30.283Z,14.10
2023-01-30T02:57:59.003Z,13.33
2023-01-30T03:00:52.612Z,12.77
2023-01-30T03:03:40.138Z,13.63
2023-01-30T03:06:31.242Z,12.00
2023-01-30T03:09:09.134Z,11.97
2023-01-30T03:11:46.264Z,11.60
2023-01-30T03:14:23.923Z,12.07
2023-01-30T03:16:55.886Z,11.10
2023-01-30T03:19:26.211Z,11.97
2023-01-30T03:21:54.946Z,12.57
2023-01-30T03:24:23.426Z,11.80
2023-01-30T03:27:00.109Z,10.83
2023-01-30T03:29:28.489Z,11.07
2023-01-30T03:31:58.298Z,10.93
2023-01-30T03:34:28.130Z,11.93
2023-01-30T03:36:57.083Z,10.03
2023-01-30T03:39:26.166Z,11.43
2023-01-30T03:41:55.123Z,9.80
2023-01-30T03:44:23.782Z,11.20
2023-01-30T03:46:52.289Z,10.90
2023-01-30T03:49:20.938Z,11.90
2023-01-30T03:51:50.761Z,11.17
2023-01-30T03:54:22.378Z,10.50
2023-01-30T03:56:50.805Z,10.67
2023-01-30T03:59:19.239Z,10.93
2023-01-30T04:01:47.652Z,11.20
2023-01-30T04:04:16.095Z,11.93
2023-01-30T04:06:44.600Z,10.70
2023-01-30T04:09:14.519Z,11.13
2023-01-30T04:11:43.040Z,10.60
2023-01-30T04:14:11.426Z,10.30
2023-01-30T04:16:39.915Z,10.80
2023-01-30T04:19:08.437Z,11.00
2023-01-30T04:21:36.883Z,10.90
2023-01-30T04:24:05.837Z,10.77
2023-01-30T04:26:35.734Z,10.20
2023-01-30T04:29:04.294Z,9.73
2023-01-30T04:31:32.822Z,10.37
2023-01-30T04:34:01.288Z,10.07
2023-01-30T04:36:30.454Z,10.37
2023-01-30T04:38:59.350Z,10.47
2023-01-30T04:41:27.811Z,11.00
2023-01-30T04:43:57.679Z,11.03
2023-01-30T04:46:26.148Z,11.30
2023-01-30T04:48:54.802Z,10.20
2023-01-30T04:51:23.318Z,10.90
2023-01-30T04:53:51.775Z,11.00
2023-01-30T04:56:20.228Z,11.03
2023-01-30T04:58:48.607Z,10.37
2023-01-30T05:01:23.995Z,10.83
2023-01-30T05:03:53.035Z,10.43
2023-01-30T05:06:21.667Z,10.63
2023-01-30T05:08:51.196Z,10.03
2023-01-30T05:11:20.243Z,9.87
2023-01-30T05:13:49.169Z,10.27
2023-01-30T05:16:21.281Z,10.10
2023-01-30T05:18:49.971Z,10.27
2023-01-30T05:21:19.817Z,10.33
2023-01-30T05:23:48.844Z,10.47
2023-01-30T05:26:17.932Z,10.43
2023-01-30T05:28:46.414Z,10.80
2023-01-30T05:31:16.033Z,10.60
2023-01-30T05:33:49.027Z,10.00
2023-01-30T05:36:18.695Z,10.00
2023-01-30T05:38:47.785Z,9.67
2023-01-30T05:41:17.785Z,9.90
2023-01-30T05:43:46.520Z,8.90
2023-01-30T05:46:15.011Z,10.00
2023-01-30T05:48:43.515Z,9.37
2023-01-30T05:51:19.828Z,8.23
2023-01-30T05:53:48.973Z,9.13
2023-01-30T05:56:18.247Z,9.80
2023-01-30T05:58:52.306Z,10.20
2023-01-30T06:01:21.178Z,10.20
2023-01-30T06:03:50.236Z,10.67
2023-01-30T06:06:20.324Z,9.60
2023-01-30T06:08:48.855Z,10.37
2023-01-30T06:11:18.876Z,10.57
2023-01-30T06:13:47.677Z,10.27
2023-01-30T06:16:17.748Z,8.97
2023-01-30T06:18:47.315Z,10.03
2023-01-30T06:21:17.075Z,10.13
2023-01-30T06:23:47.134Z,10.80
2023-01-30T06:26:15.643Z,10.97
2023-01-30T06:28:44.481Z,10.50
2023-01-30T06:31:13.183Z,10.20
2023-01-30T06:33:41.597Z,9.60
2023-01-30T06:36:10.797Z,9.77
2023-01-30T06:38:39.232Z,9.30
2023-01-30T06:41:10.500Z,8.77
2023-01-30T06:43:38.948Z,9.33
2023-01-30T06:46:07.663Z,8.13
2023-01-30T06:48:36.164Z,8.37
2023-01-30T06:51:04.807Z,9.33
2023-01-30T06:53:36.869Z,8.80
2023-01-30T06:56:05.557Z,9.13
2023-01-30T06:58:35.474Z,9.03
2023-01-30T07:01:03.969Z,9.60
2023-01-30T07:03:32.454Z,9.77
2023-01-30T07:06:01.089Z,9.30
2023-01-30T07:08:29.536Z,9.23
2023-01-30T07:10:58.319Z,8.60
2023-01-30T07:13:26.899Z,9.47
2023-01-30T07:15:58.264Z,9.23
2023-01-30T07:18:26.748Z,8.70
2023-01-30T07:20:55.325Z,8.30
2023-01-30T07:23:29.687Z,8.70
2023-01-30T07:25:58.249Z,9.23
2023-01-30T07:28:30.042Z,8.47
2023-01-30T07:31:02.478Z,9.10
2023-01-30T07:33:31.379Z,9.43
2023-01-30T07:35:59.870Z,9.00
2023-01-30T07:38:28.547Z,8.80
2023-01-30T07:40:59.404Z,9.83
2023-01-30T07:43:28.085Z,9.20
2023-01-30T07:45:56.523Z,9.20
2023-01-30T07:48:26.492Z,9.77
2023-01-30T07:50:57.978Z,8.70
2023-01-30T07:53:26.478Z,8.50
2023-01-30T07:55:55.005Z,8.10
2023-01-30T07:58:23.901Z,9.00
2023-01-30T08:00:56.635Z,9.03
2023-01-30T08:03:26.576Z,8.90
2023-01-30T08:05:55.564Z,9.23
2023-01-30T08:08:24.191Z,8.60
2023-01-30T08:10:52.678Z,8.13
2023-01-30T08:13:21.282Z,8.63
2023-01-30T08:15:50.740Z,9.77
2023-01-30T08:18:20.407Z,10.03
2023-01-30T08:20:52.417Z,9.80
2023-01-30T08:23:23.533Z,10.10
2023-01-30T08:25:56.713Z,8.97
2023-01-30T08:28:27.868Z,9.17
2023-01-30T08:30:59.414Z,8.07
2023-01-30T08:33:29.011Z,9.90
2023-01-30T08:35:58.899Z,9.37
2023-01-30T08:38:27.308Z,9.87
2023-01-30T08:40:57.339Z,9.27
2023-01-30T08:43:25.848Z,9.70
2023-01-30T08:45:55.280Z,9.93
2023-01-30T08:48:24.026Z,9.00
2023-01-30T08:50:53.966Z,9.13
2023-01-30T08:53:23.964Z,8.67
2023-01-30T08:55:53.012Z,7.70
2023-01-30T08:58:21.993Z,7.60
2023-01-30T09:00:50.824Z,7.57
2023-01-30T09:03:20.039Z,8.27
2023-01-30T09:05:48.673Z,8.50
2023-01-30T09:08:17.082Z,8.57
2023-01-30T09:10:46.876Z,8.63
2023-01-30T09:13:15.359Z,8.87
2023-01-30T09:15:43.943Z,8.40
2023-01-30T09:18:12.425Z,8.13
2023-01-30T09:20:40.929Z,8.10
2023-01-30T09:23:09.492Z,8.47
2023-01-30T09:25:37.938Z,7.53
2023-01-30T09:28:08.282Z,7.90
2023-01-30T09:30:36.858Z,8.27
2023-01-30T09:33:05.486Z,7.57
2023-01-30T09:35:33.947Z,7.23
2023-01-30T09:38:03.225Z,7.07
2023-01-30T09:40:34.250Z,7.43
2023-01-30T09:43:26.587Z,7.27
2023-01-30T09:46:12.166Z,7.20
2023-01-30T09:48:49.532Z,7.33
2023-01-30T09:51:41.236Z,8.17
2023-01-30T09:54:24.660Z,6.97
2023-01-30T09:57:01.216Z,8.07
2023-01-30T09:59:38.225Z,8.50
2023-01-30T10:02:25.571Z,6.67
2023-01-30T10:05:01.854Z,8.90
2023-01-30T10:07:43.249Z,8.40
2023-01-30T10:10:19.519Z,8.43
2023-01-30T10:12:57.021Z,7.83
2023-01-30T10:15:36.019Z,8.17
2023-01-30T10:18:42.013Z,9.17
2023-01-30T10:21:21.714Z,8.70
2023-01-30T10:24:07.543Z,9.67
2023-01-30T10:26:36.339Z,8.90
2023-01-30T10:29:09.982Z,8.73
2023-01-30T10:31:46.609Z,9.03
2023-01-30T10:34:21.946Z,9.73
2023-01-30T10:36:56.108Z,9.53
2023-01-30T10:39:32.972Z,8.13
2023-01-30T10:42:10.895Z,8.00
2023-01-30T10:44:42.914Z,8.23
2023-01-30T10:47:46.222Z,8.57
2023-01-30T10:50:18.519Z,7.77
2023-01-30T10:52:55.521Z,8.00
2023-01-30T10:55:37.649Z,7.30
2023-01-30T10:58:16.848Z,7.33
2023-01-30T11:00:52.007Z,6.47
2023-01-30T11:03:30.572Z,6.90
2023-01-30T11:06:02.689Z,8.17
2023-01-30T11:08:34.537Z,7.10
2023-01-30T11:11:21.778Z,8.43
2023-01-30T11:13:50.168Z,6.57
2023-01-30T11:16:19.049Z,6.47
2023-01-30T11:21:44.760Z,6.73
2023-01-30T11:24:17.379Z,7.33
2023-01-30T11:26:48.009Z,7.23
2023-01-30T11:29:27.601Z,6.63
2023-01-30T11:31:56.571Z,7.17
2023-01-30T11:34:26.734Z,6.47
2023-01-30T11:36:55.130Z,6.80
2023-01-30T11:39:30.118Z,6.50
2023-01-30T11:42:05.118Z,6.73
2023-01-30T11:44:36.171Z,6.47
2023-01-30T11:47:09.754Z,6.87
2023-01-30T11:49:46.617Z,6.63
2023-01-30T11:52:19.771Z,6.03
2023-01-30T11:54:49.807Z,6.37
2023-01-30T11:57:21.455Z,6.40
2023-01-30T11:59:56.842Z,5.73
2023-01-30T12:02:27.282Z,5.97
2023-01-30T12:05:01.134Z,5.90
2023-01-30T12:07:31.000Z,6.77
2023-01-30T12:10:00.244Z,6.23
2023-01-30T12:12:34.470Z,5.50
2023-01-30T12:15:14.822Z,5.77
2023-01-30T12:17:48.618Z,5.40
2023-01-30T12:20:27.493Z,5.87
2023-01-30T12:23:05.385Z,7.97
2023-01-30T12:25:40.367Z,7.50
2023-01-30T12:28:20.859Z,5.27
2023-01-30T12:30:53.033Z,4.67
2023-01-30T12:33:21.566Z,4.00
2023-01-30T12:36:02.485Z,4.77
2023-01-30T12:38:48.411Z,3.80
2023-01-30T12:41:29.973Z,3.37
2023-01-30T12:44:26.840Z,3.10
2023-01-30T12:47:08.994Z,3.20
2023-01-30T12:49:50.513Z,2.63
2023-01-30T12:52:41.117Z,2.77
2023-01-30T12:55:24.181Z,2.97
2023-01-30T12:57:58.485Z,2.57
2023-01-30T13:00:41.990Z,2.90
2023-01-30T13:03:25.055Z,2.50
2023-01-30T13:06:04.271Z,3.00
2023-01-30T13:08:52.717Z,2.40
2023-01-30T13:11:41.130Z,2.37
2023-01-30T13:14:21.117Z,2.40
2023-01-30T13:17:07.169Z,2.37
2023-01-30T13:19:43.264Z,2.50
2023-01-30T13:22:19.692Z,2.70
2023-01-30T13:25:03.871Z,2.70
2023-01-30T13:27:38.462Z,2.60
2023-01-30T13:30:10.717Z,2.60
2023-01-30T13:32:42.918Z,2.67
2023-01-30T13:35:18.788Z,2.50
2023-01-30T13:37:49.795Z,2.63
2023-01-30T13:40:23.114Z,2.30
2023-01-30T13:42:57.150Z,1.90
2023-01-30T13:45:30.021Z,2.00
2023-01-30T13:48:16.169Z,1.90
2023-01-30T13:51:02.366Z,2.50
2023-01-30T13:53:40.031Z,2.30
2023-01-30T13:56:39.614Z,2.30
2023-01-30T13:59:15.898Z,2.23
2023-01-30T14:02:26.283Z,2.13
2023-01-30T14:04:55.354Z,2.17
2023-01-30T14:07:28.985Z,2.60
2023-01-30T14:10:15.481Z,2.40
2023-01-30T14:12:48.732Z,2.07
2023-01-30T14:15:29.232Z,2.20
2023-01-30T14:18:03.514Z,2.10
2023-01-30T14:20:33.743Z,2.10
2023-01-30T14:23:03.740Z,2.33
2023-01-30T14:25:49.273Z,2.40
2023-01-30T14:28:51.931Z,2.10
2023-01-30T14:31:56.709Z,2.37
2023-01-30T14:34:50.052Z,2.30
2023-01-30T14:37:47.375Z,2.20
2023-01-30T14:40:36.059Z,2.43
2023-01-30T14:43:49.725Z,2.30
2023-01-30T14:46:55.781Z,2.37
2023-01-30T14:49:32.611Z,2.27
2023-01-30T14:52:02.411Z,2.30
2023-01-30T14:54:42.462Z,2.57
2023-01-30T14:57:25.012Z,2.50
2023-01-30T15:00:19.155Z,2.50
2023-01-30T15:02:53.341Z,2.50
2023-01-30T15:05:28.644Z,2.33
2023-01-30T15:08:04.179Z,2.30
2023-01-30T15:10:46.577Z,2.30
2023-01-30T15:13:35.193Z,2.40
2023-01-30T15:16:21.663Z,1.90
2023-01-30T15:19:04.555Z,2.20
2023-01-30T15:22:04.020Z,5.33
2023-01-30T15:25:02.789Z,4.30
2023-01-30T15:27:35.788Z,2.30
2023-01-30T15:30:21.873Z,2.43
2023-01-30T15:32:50.572Z,2.30
2023-01-30T15:35:28.580Z,1.93
2023-01-30T15:37:58.405Z,2.70
2023-01-30T15:40:30.302Z,1.90
2023-01-30T15:43:29.867Z,2.93
2023-01-30T15:46:11.957Z,2.30
2023-01-30T15:48:56.421Z,2.37
2023-01-30T15:51:29.145Z,2.37
2023-01-30T15:53:59.642Z,2.47
2023-01-30T15:56:30.845Z,3.53
2023-01-30T15:59:01.932Z,2.20
2023-01-30T16:01:30.837Z,3.00
2023-01-30T16:04:00.678Z,2.70
2023-01-30T16:06:34.456Z,2.40
2023-01-30T16:09:05.081Z,2.70
2023-01-30T16:11:36.129Z,2.87
2023-01-30T16:14:04.901Z,2.33
2023-01-30T16:16:36.862Z,2.60
2023-01-30T16:19:09.361Z,2.50
2023-01-30T16:21:41.544Z,2.07
2023-01-30T16:24:18.004Z,2.83
2023-01-30T16:26:50.123Z,3.07
2023-01-30T16:29:22.041Z,2.47
2023-01-30T16:31:52.847Z,2.40
2023-01-30T16:34:30.318Z,2.50
2023-01-30T16:37:04.789Z,2.27
2023-01-30T16:39:35.317Z,2.50
2023-01-30T16:42:05.561Z,2.67
2023-01-30T16:44:34.031Z,2.93
2023-01-30T16:47:06.424Z,2.40
2023-01-30T16:49:48.317Z,2.50
2023-01-30T16:52:22.025Z,2.40
2023-01-30T16:54:53.561Z,2.77
2023-01-30T16:57:36.786Z,2.80
2023-01-30T17:00:18.829Z,2.77
2023-01-30T17:02:52.787Z,2.40
2023-01-30T17:05:23.835Z,2.73
2023-01-30T17:07:56.307Z,2.33
2023-01-30T17:10:53.775Z,2.73
2023-01-30T17:13:33.922Z,3.20
2023-01-30T17:16:28.916Z,3.17
2023-01-30T17:18:58.448Z,3.47
2023-01-30T17:21:32.016Z,2.20
2023-01-30T17:24:03.878Z,2.60
2023-01-30T17:26:33.544Z,2.27
2023-01-30T17:29:02.204Z,2.07
2023-01-30T17:31:30.992Z,2.27
2023-01-30T17:33:59.967Z,2.37
2023-01-30T17:36:30.825Z,2.10
2023-01-30T17:39:02.314Z,2.27
2023-01-30T17:41:33.650Z,2.10
2023-01-30T17:44:02.130Z,1.87
2023-01-30T17:46:36.707Z,1.43
2023-01-30T17:49:05.641Z,1.60
2023-01-30T17:51:34.350Z,1.93
2023-01-30T17:54:06.325Z,1.97
2023-01-30T17:56:38.341Z,1.80
2023-01-30T17:59:11.149Z,1.83
2023-01-30T18:01:40.068Z,2.30
2023-01-30T18:04:08.726Z,2.40
2023-01-30T18:06:38.233Z,2.23
2023-01-30T18:09:09.297Z,2.00
2023-01-30T18:11:37.788Z,1.63
2023-01-30T18:14:07.231Z,1.93
2023-01-30T18:16:35.884Z,2.07
2023-01-30T18:19:06.349Z,1.93
2023-01-30T18:21:36.325Z,1.90
2023-01-30T18:24:04.908Z,1.67
2023-01-30T18:26:35.381Z,1.70
2023-01-30T18:29:03.933Z,1.87
2023-01-30T18:31:33.518Z,1.90
2023-01-30T18:34:02.123Z,1.77
2023-01-30T18:36:30.964Z,2.03
2023-01-30T18:38:59.645Z,1.60
2023-01-30T18:41:32.305Z,1.60
2023-01-30T18:44:03.995Z,2.13
2023-01-30T18:46:33.025Z,2.17
2023-01-30T18:49:01.778Z,1.97
2023-01-30T18:51:34.102Z,1.83
2023-01-30T18:54:03.073Z,2.07
2023-01-30T18:56:33.427Z,1.53
2023-01-30T18:59:05.451Z,1.63
2023-01-30T19:01:36.908Z,2.37
2023-01-30T19:04:06.796Z,2.20
2023-01-30T19:06:37.781Z,1.80
2023-01-30T19:09:07.386Z,2.10
2023-01-30T19:11:53.766Z,2.37
2023-01-30T19:14:23.745Z,2.47
2023-01-30T19:16:52.580Z,2.27
2023-01-30T19:19:21.503Z,2.00
2023-01-30T19:21:52.483Z,2.30
2023-01-30T19:24:21.361Z,3.00
2023-01-30T19:26:49.950Z,2.87
2023-01-30T19:29:18.460Z,2.57
2023-01-30T19:31:48.879Z,2.27
2023-01-30T19:34:17.420Z,2.70
2023-01-30T19:36:45.960Z,2.50
2023-01-30T19:39:14.707Z,2.43
2023-01-30T19:41:43.250Z,2.97
2023-01-30T19:44:13.912Z,2.40
2023-01-30T19:46:43.364Z,3.50
2023-01-30T19:49:14.171Z,2.30
2023-01-30T19:51:43.959Z,2.60
2023-01-30T19:54:13.219Z,3.10
2023-01-30T19:56:42.787Z,2.90
2023-01-30T19:59:16.175Z,2.60
2023-01-30T20:01:44.885Z,3.20
2023-01-30T20:04:15.089Z,3.00
2023-01-30T20:06:46.297Z,2.60
2023-01-30T20:09:16.345Z,3.03
2023-01-30T20:11:45.161Z,2.43
2023-01-30T20:14:13.853Z,2.53
2023-01-30T20:16:42.666Z,2.50
2023-01-30T20:19:16.081Z,2.17
2023-01-30T20:21:45.750Z,2.20
2023-01-30T20:24:14.980Z,2.20
2023-01-30T20:26:47.148Z,2.00
2023-01-30T20:29:18.178Z,2.30
2023-01-30T20:31:47.063Z,2.70
2023-01-30T20:34:18.413Z,2.27
2023-01-30T20:36:46.944Z,2.40
2023-01-30T20:39:17.146Z,2.30
2023-01-30T20:41:45.919Z,2.20
2023-01-30T20:44:15.662Z,2.10
2023-01-30T20:46:46.136Z,2.20
2023-01-30T20:49:18.091Z,1.87
2023-01-30T20:51:47.290Z,2.20
2023-01-30T20:54:16.931Z,2.23
2023-01-30T20:56:47.680Z,2.40
2023-01-30T20:59:18.406Z,1.80
2023-01-30T21:01:47.521Z,2.27
2023-01-30T21:04:20.909Z,2.37
2023-01-30T21:06:49.444Z,2.10
2023-01-30T21:09:19.764Z,2.27
2023-01-30T21:11:49.197Z,2.43
2023-01-30T21:14:18.678Z,2.73
2023-01-30T21:16:47.767Z,2.63
2023-01-30T21:19:19.045Z,2.53
2023-01-30T21:21:51.285Z,2.20
2023-01-30T21:24:21.901Z,2.37
2023-01-30T21:26:50.757Z,2.37
2023-01-30T21:29:24.667Z,2.97
2023-01-30T21:31:53.922Z,2.63
2023-01-30T21:34:24.012Z,2.67
2023-01-30T21:37:06.754Z,3.10
2023-01-30T21:39:52.967Z,2.50
2023-01-30T21:42:39.303Z,3.20
2023-01-30T21:45:08.760Z,2.03
2023-01-30T21:47:37.353Z,2.63
2023-01-30T21:50:08.121Z,2.60
2023-01-30T21:52:38.081Z,2.57
2023-01-30T21:55:07.174Z,2.50
2023-01-30T21:57:35.707Z,2.33
2023-01-30T22:00:04.292Z,2.70
2023-01-30T22:02:32.748Z,2.30
2023-01-30T22:05:01.239Z,2.80
2023-01-30T22:07:31.826Z,2.10
2023-01-30T22:10:01.654Z,1.90
2023-01-30T22:12:31.873Z,2.17
2023-01-30T22:15:00.318Z,2.07
2023-01-30T22:17:28.834Z,2.30
2023-01-30T22:19:57.469Z,2.37
2023-01-30T22:22:26.544Z,2.23
2023-01-30T22:24:56.877Z,2.40
2023-01-30T22:27:25.348Z,2.10
2023-01-30T22:29:54.044Z,1.90
2023-01-30T22:32:22.647Z,1.93
2023-01-30T22:34:51.181Z,1.80
2023-01-30T22:37:19.666Z,2.30
2023-01-30T22:39:48.246Z,2.20
2023-01-30T22:42:19.254Z,2.70
2023-01-30T22:44:47.744Z,1.93
2023-01-30T22:47:16.470Z,1.87
2023-01-30T22:49:44.994Z,1.80
2023-01-30T22:52:17.704Z,1.90
2023-01-30T22:54:46.173Z,2.73
2023-01-30T22:57:17.308Z,2.33
2023-01-30T22:59:48.068Z,1.97
2023-01-30T23:02:16.552Z,1.80
2023-01-30T23:04:44.926Z,1.70
2023-01-30T23:07:14.808Z,1.80
2023-01-30T23:09:43.221Z,1.90
2023-01-30T23:12:28.920Z,1.90
2023-01-30T23:14:59.132Z,1.83
2023-01-30T23:17:45.032Z,2.20
2023-01-30T23:20:14.073Z,2.10
2023-01-30T23:22:42.873Z,1.93
2023-01-30T23:25:11.704Z,2.27
2023-01-30T23:27:40.140Z,2.50
2023-01-30T23:30:11.792Z,2.17
2023-01-30T23:32:40.227Z,2.77
2023-01-30T23:35:09.356Z,2.70
2023-01-30T23:37:51.729Z,3.77
2023-01-30T23:40:21.167Z,3.73
2023-01-30T23:42:49.690Z,2.50
2023-01-30T23:45:19.784Z,2.30
2023-01-30T23:47:48.639Z,2.10
2023-01-30T23:50:17.292Z,2.50
2023-01-30T23:52:45.848Z,2.90
2023-01-30T23:55:14.585Z,2.63
2023-01-30T23:57:43.413Z,3.13
